createdAt,value
2018-07-03T00:00:55.069Z,23.80
2018-07-03T00:03:27.505Z,21.40
2018-07-03T00:05:59.919Z,26.33
2018-07-03T00:08:32.321Z,24.87
2018-07-03T00:11:04.797Z,27.73
2018-07-03T00:13:37.197Z,29.60
2018-07-03T00:16:10.249Z,26.87
2018-07-03T00:18:42.583Z,27.13
2018-07-03T00:21:14.898Z,33.30
2018-07-03T00:27:15.880Z,22.50
2018-07-03T00:29:48.372Z,20.27
2018-07-03T00:32:20.605Z,21.30
2018-07-03T00:34:52.780Z,27.83
2018-07-03T00:37:23.841Z,22.57
2018-07-03T00:39:56.165Z,24.63
2018-07-03T00:42:28.526Z,46.43
2018-07-03T00:45:00.625Z,28.07
2018-07-03T00:47:33.566Z,27.70
2018-07-03T00:50:06.155Z,25.23
2018-07-03T00:52:38.384Z,26.13
2018-07-03T00:55:10.877Z,24.53
2018-07-03T00:57:42.939Z,17.43
2018-07-03T01:00:24.680Z,28.50
2018-07-03T01:02:57.628Z,12.20
2018-07-03T01:05:30.040Z,16.70
2018-07-03T01:08:02.886Z,15.90
2018-07-03T01:10:35.163Z,18.57
2018-07-03T01:13:09.000Z,23.97
2018-07-03T01:15:48.748Z,10.93
2018-07-03T01:18:19.771Z,18.70
2018-07-03T01:20:51.990Z,11.67
2018-07-03T01:23:23.250Z,10.00
2018-07-03T01:25:56.168Z,17.80
2018-07-03T01:28:28.375Z,10.17
2018-07-03T01:31:00.779Z,9.20
2018-07-03T01:33:33.073Z,7.93
2018-07-03T01:36:05.507Z,10.57
2018-07-03T01:38:42.028Z,11.20
2018-07-03T01:41:14.309Z,9.77
2018-07-03T01:43:46.723Z,12.37
2018-07-03T01:46:18.978Z,21.97
2018-07-03T01:48:51.201Z,8.50
2018-07-03T01:51:28.867Z,13.50
2018-07-03T01:54:01.148Z,15.07
2018-07-03T01:56:33.339Z,16.60
2018-07-03T01:59:05.813Z,9.73
2018-07-03T02:01:38.101Z,15.27
2018-07-03T02:04:11.389Z,16.43
2018-07-03T02:06:43.726Z,15.43
2018-07-03T02:09:16.410Z,12.27
2018-07-03T02:11:48.626Z,16.33
2018-07-03T02:14:20.951Z,12.93
2018-07-03T02:16:53.181Z,13.13
2018-07-03T02:19:25.615Z,12.27
2018-07-03T02:21:58.015Z,11.07
2018-07-03T02:24:30.103Z,12.00
2018-07-03T02:27:02.524Z,11.00
2018-07-03T02:29:34.633Z,16.77
2018-07-03T02:32:07.281Z,11.97
2018-07-03T02:34:40.128Z,12.33
2018-07-03T02:37:12.785Z,14.27
2018-07-03T02:39:45.928Z,14.00
2018-07-03T02:42:18.287Z,11.23
2018-07-03T02:48:12.027Z,23.77
2018-07-03T02:50:44.574Z,16.30
2018-07-03T02:53:17.338Z,17.20
2018-07-03T02:59:10.698Z,16.43
2018-07-03T03:05:04.508Z,20.73
2018-07-03T03:07:37.010Z,27.10
2018-07-03T03:10:11.521Z,25.37
2018-07-03T03:12:44.439Z,23.63
2018-07-03T03:15:18.024Z,31.43
2018-07-03T03:17:50.502Z,20.77
2018-07-03T03:20:22.968Z,26.13
2018-07-03T03:22:55.501Z,17.47
2018-07-03T03:25:27.960Z,16.97
2018-07-03T03:28:00.473Z,17.87
2018-07-03T03:30:32.989Z,16.70
2018-07-03T03:33:07.825Z,15.83
2018-07-03T03:35:41.206Z,15.73
2018-07-03T03:41:34.650Z,14.27
2018-07-03T03:44:07.104Z,11.83
2018-07-03T03:46:40.565Z,18.83
2018-07-03T03:49:16.042Z,19.57
2018-07-03T03:51:48.732Z,14.87
2018-07-03T03:54:20.914Z,12.30
2018-07-03T03:56:53.169Z,10.17
2018-07-03T03:59:24.659Z,9.67
2018-07-03T04:01:56.815Z,11.93
2018-07-03T04:04:28.874Z,16.03
2018-07-03T04:07:01.278Z,14.77
2018-07-03T04:09:33.410Z,12.03
2018-07-03T04:12:05.964Z,18.07
2018-07-03T04:14:38.163Z,24.47
2018-07-03T04:17:10.376Z,19.17
2018-07-03T04:19:42.499Z,15.47
2018-07-03T04:22:14.761Z,14.93
2018-07-03T04:24:47.251Z,16.90
2018-07-03T04:27:19.409Z,19.53
2018-07-03T04:29:51.503Z,16.63
2018-07-03T04:32:23.566Z,11.30
2018-07-03T04:34:56.143Z,14.93
2018-07-03T04:37:28.232Z,15.97
2018-07-03T04:40:00.394Z,12.17
2018-07-03T04:42:33.068Z,9.50
2018-07-03T04:45:05.190Z,13.77
2018-07-03T04:47:37.256Z,14.50
2018-07-03T04:50:09.473Z,19.53
2018-07-03T04:52:41.803Z,26.20
2018-07-03T04:55:13.881Z,19.10
2018-07-03T04:57:46.013Z,15.60
2018-07-03T05:00:17.023Z,14.87
2018-07-03T05:02:49.103Z,11.43
2018-07-03T05:05:21.411Z,14.67
2018-07-03T05:07:53.589Z,15.47
2018-07-03T05:10:25.912Z,17.37
2018-07-03T05:12:58.006Z,15.80
2018-07-03T05:15:30.177Z,14.70
2018-07-03T05:18:02.284Z,20.53
2018-07-03T05:20:34.427Z,14.43
2018-07-03T05:23:06.362Z,15.50
2018-07-03T05:25:37.392Z,12.83
2018-07-03T05:28:09.467Z,14.80
2018-07-03T05:30:41.595Z,13.53
2018-07-03T05:33:13.713Z,14.67
2018-07-03T05:35:46.307Z,15.83
2018-07-03T05:38:18.283Z,14.77
2018-07-03T05:40:50.580Z,11.27
2018-07-03T05:43:22.732Z,17.70
2018-07-03T05:45:55.056Z,19.63
2018-07-03T05:48:27.005Z,16.13
2018-07-03T05:50:59.246Z,18.87
2018-07-03T05:53:31.252Z,17.27
2018-07-03T05:56:02.226Z,15.43
2018-07-03T05:58:34.383Z,18.00
2018-07-03T06:01:06.680Z,18.73
2018-07-03T06:03:38.746Z,21.10
2018-07-03T06:06:10.892Z,13.07
2018-07-03T06:08:43.430Z,23.70
2018-07-03T06:11:15.616Z,16.20
2018-07-03T06:13:47.824Z,18.13
2018-07-03T06:19:50.743Z,18.13
2018-07-03T06:22:23.047Z,16.80
2018-07-03T06:24:55.878Z,17.03
2018-07-03T06:27:28.223Z,16.50
2018-07-03T06:30:00.894Z,17.40
2018-07-03T06:32:34.967Z,18.23
2018-07-03T06:35:07.331Z,15.93
2018-07-03T06:37:39.585Z,22.03
2018-07-03T06:40:11.881Z,19.37
2018-07-03T06:42:44.398Z,19.67
2018-07-03T06:45:16.771Z,21.80
2018-07-03T06:47:49.141Z,23.37
2018-07-03T06:50:21.600Z,18.63
2018-07-03T06:52:54.023Z,19.47
2018-07-03T06:55:26.464Z,27.37
2018-07-03T06:57:58.656Z,16.50
2018-07-03T07:00:31.108Z,16.30
2018-07-03T07:03:03.580Z,16.97
2018-07-03T07:05:35.740Z,22.73
2018-07-03T07:08:08.360Z,17.10
2018-07-03T07:10:40.688Z,18.60
2018-07-03T07:13:13.462Z,22.87
2018-07-03T07:15:45.878Z,26.77
2018-07-03T07:18:18.334Z,16.50
2018-07-03T07:20:50.940Z,24.87
2018-07-03T07:23:23.282Z,17.33
2018-07-03T07:25:55.591Z,20.93
2018-07-03T07:28:28.004Z,20.27
2018-07-03T07:31:00.328Z,16.57
2018-07-03T07:33:32.648Z,21.73
2018-07-03T07:36:05.203Z,19.03
2018-07-03T07:38:37.672Z,17.83
2018-07-03T07:41:10.080Z,21.07
2018-07-03T07:43:42.425Z,17.97
2018-07-03T07:46:14.696Z,19.43
2018-07-03T07:48:47.007Z,22.80
2018-07-03T07:51:19.374Z,23.73
2018-07-03T07:53:51.781Z,24.47
2018-07-03T07:56:24.797Z,20.03
2018-07-03T07:58:57.031Z,22.70
2018-07-03T08:01:29.260Z,27.83
2018-07-03T08:04:01.535Z,23.60
2018-07-03T08:06:34.244Z,22.90
2018-07-03T08:09:09.051Z,18.87
2018-07-03T08:11:41.426Z,21.67
2018-07-03T08:14:13.771Z,22.20
2018-07-03T08:16:46.090Z,16.77
2018-07-03T08:19:18.540Z,23.77
2018-07-03T08:21:50.919Z,22.73
2018-07-03T08:24:23.120Z,24.27
2018-07-03T08:30:16.390Z,23.03
2018-07-03T08:32:48.790Z,25.70
2018-07-03T08:35:21.080Z,21.97
2018-07-03T08:37:53.533Z,29.53
2018-07-03T08:40:25.956Z,27.90
2018-07-03T08:42:58.340Z,20.90
2018-07-03T08:45:30.758Z,34.70
2018-07-03T08:48:03.281Z,28.27
2018-07-03T08:53:56.474Z,26.73
2018-07-03T08:56:28.569Z,24.80
2018-07-03T08:59:00.935Z,28.83
2018-07-03T09:01:33.244Z,26.40
2018-07-03T09:04:05.886Z,23.87
2018-07-03T09:06:38.322Z,29.23
2018-07-03T09:09:12.599Z,24.20
2018-07-03T09:11:44.809Z,22.23
2018-07-03T09:14:17.162Z,26.07
2018-07-03T09:16:49.417Z,25.53
2018-07-03T09:19:21.622Z,38.63
2018-07-03T09:21:54.181Z,22.87
2018-07-03T09:24:26.390Z,28.37
2018-07-03T09:26:58.528Z,30.57
2018-07-03T09:29:30.997Z,24.57
2018-07-03T09:32:03.283Z,25.27
2018-07-03T09:34:34.287Z,25.97
2018-07-03T09:37:06.426Z,26.60
2018-07-03T09:39:38.724Z,26.60
2018-07-03T09:42:10.925Z,25.30
2018-07-03T09:44:41.947Z,27.47
2018-07-03T09:47:14.306Z,29.03
2018-07-03T09:49:47.266Z,27.63
2018-07-03T09:52:19.604Z,26.10
2018-07-03T09:54:52.055Z,31.20
2018-07-03T09:57:24.504Z,35.43
2018-07-03T09:59:56.597Z,33.83
2018-07-03T10:02:29.023Z,32.70
2018-07-03T10:05:01.098Z,23.63
2018-07-03T10:07:33.313Z,21.87
2018-07-03T10:10:06.042Z,29.00
2018-07-03T10:12:38.181Z,26.93
2018-07-03T10:15:10.346Z,35.50
2018-07-03T10:17:42.616Z,23.40
2018-07-03T10:20:15.083Z,23.07
2018-07-03T10:22:47.249Z,27.67
2018-07-03T10:25:19.483Z,20.77
2018-07-03T10:27:51.967Z,27.87
2018-07-03T10:30:24.234Z,30.00
2018-07-03T10:32:56.500Z,23.53
2018-07-03T10:35:28.713Z,22.57
2018-07-03T10:38:01.081Z,26.13
2018-07-03T10:40:33.398Z,22.03
2018-07-03T10:43:05.546Z,27.83
2018-07-03T10:49:02.606Z,27.27
2018-07-03T10:51:35.169Z,27.23
2018-07-03T10:54:08.151Z,25.67
2018-07-03T10:56:40.822Z,21.80
2018-07-03T10:59:13.562Z,27.97
2018-07-03T11:01:46.485Z,25.93
2018-07-03T11:04:19.206Z,25.43
2018-07-03T11:06:52.077Z,26.30
2018-07-03T11:09:24.609Z,33.13
2018-07-03T11:11:57.713Z,25.20
2018-07-03T11:14:30.551Z,24.77
2018-07-03T11:17:03.597Z,28.13
2018-07-03T11:19:36.421Z,23.63
2018-07-03T11:22:09.356Z,31.53
2018-07-03T11:24:42.091Z,30.80
2018-07-03T11:27:13.344Z,24.80
2018-07-03T11:29:46.127Z,28.57
2018-07-03T11:32:18.732Z,32.40
2018-07-03T11:34:51.473Z,30.77
2018-07-03T11:37:24.116Z,30.50
2018-07-03T11:39:56.960Z,31.83
2018-07-03T11:42:29.765Z,30.30
2018-07-03T11:45:02.930Z,36.03
2018-07-03T11:47:35.780Z,32.73
2018-07-03T11:50:09.409Z,32.43
2018-07-03T11:52:42.888Z,25.47
2018-07-03T11:55:15.713Z,32.63
2018-07-03T11:57:48.544Z,33.93
2018-07-03T12:00:22.131Z,31.47
2018-07-03T12:02:55.195Z,24.80
2018-07-03T12:05:27.960Z,26.57
2018-07-03T12:08:00.689Z,31.70
2018-07-03T12:10:33.369Z,32.07
2018-07-03T12:13:07.087Z,34.97
2018-07-03T12:15:39.881Z,29.77
2018-07-03T12:18:17.098Z,25.63
2018-07-03T12:20:55.323Z,33.73
2018-07-03T12:23:28.357Z,31.93
2018-07-03T12:29:31.808Z,26.63
2018-07-03T12:32:05.927Z,33.10
2018-07-03T12:34:39.502Z,35.40
2018-07-03T12:37:12.561Z,43.53
2018-07-03T12:39:45.899Z,32.27
2018-07-03T12:42:18.234Z,37.33
2018-07-03T12:44:50.398Z,32.13
2018-07-03T12:47:22.714Z,29.40
2018-07-03T12:49:55.954Z,33.20
2018-07-03T12:52:27.896Z,25.60
2018-07-03T12:55:00.042Z,23.10
2018-07-03T12:57:32.170Z,31.33
2018-07-03T13:00:04.496Z,37.07
2018-07-03T13:02:36.722Z,27.63
2018-07-03T13:05:09.348Z,26.13
2018-07-03T13:07:41.469Z,30.47
2018-07-03T13:10:13.518Z,23.70
2018-07-03T13:12:45.666Z,20.50
2018-07-03T13:15:17.682Z,25.90
2018-07-03T13:17:49.744Z,27.63
2018-07-03T13:20:21.821Z,24.93
2018-07-03T13:22:54.868Z,27.53
2018-07-03T13:25:27.080Z,20.73
2018-07-03T13:27:59.445Z,25.87
2018-07-03T13:30:31.828Z,22.77
2018-07-03T13:33:04.489Z,27.00
2018-07-03T13:35:36.531Z,26.37
2018-07-03T13:38:09.492Z,19.67
2018-07-03T13:40:42.233Z,27.40
2018-07-03T13:43:14.375Z,28.00
2018-07-03T13:45:46.545Z,38.87
2018-07-03T13:48:18.688Z,48.27
2018-07-03T13:50:50.803Z,55.33
2018-07-03T13:53:22.813Z,59.47
2018-07-03T13:55:55.692Z,44.60
2018-07-03T13:58:28.028Z,54.03
2018-07-03T14:01:00.002Z,47.73
2018-07-03T14:03:32.068Z,43.13
2018-07-03T14:06:07.924Z,37.93
2018-07-03T14:12:07.217Z,40.57
2018-07-03T14:14:38.376Z,44.90
2018-07-03T14:17:12.207Z,35.43
2018-07-03T14:19:46.552Z,31.07
2018-07-03T14:22:19.052Z,23.77
2018-07-03T14:25:01.344Z,34.00
2018-07-03T14:27:34.649Z,32.37
2018-07-03T14:33:28.469Z,40.57
2018-07-03T14:36:00.167Z,32.43
2018-07-03T14:38:32.738Z,38.20
2018-07-03T14:41:07.158Z,28.03
2018-07-03T14:43:39.898Z,27.30
2018-07-03T14:46:13.963Z,25.40
2018-07-03T14:48:46.333Z,26.43
2018-07-03T14:51:20.808Z,21.10
2018-07-03T14:53:56.778Z,26.20
2018-07-03T14:56:29.516Z,30.80
2018-07-03T14:59:02.711Z,36.90
2018-07-03T15:01:34.006Z,32.37
2018-07-03T15:04:06.500Z,28.03
2018-07-03T15:06:38.769Z,23.17
2018-07-03T15:09:14.244Z,26.10
2018-07-03T15:11:46.849Z,34.60
2018-07-03T15:14:19.369Z,32.93
2018-07-03T15:16:51.620Z,29.63
2018-07-03T15:20:01.225Z,25.30
2018-07-03T15:22:37.825Z,25.27
2018-07-03T15:25:10.356Z,24.63
2018-07-03T15:27:44.794Z,35.10
2018-07-03T15:30:21.212Z,27.70
2018-07-03T15:32:59.135Z,28.60
2018-07-03T15:38:59.054Z,29.73
2018-07-03T15:41:31.363Z,27.97
2018-07-03T15:44:29.436Z,32.73
2018-07-03T15:50:53.988Z,18.80
2018-07-03T15:53:26.336Z,26.50
2018-07-03T15:56:00.144Z,34.00
2018-07-03T15:58:32.924Z,37.90
2018-07-03T16:01:05.986Z,32.57
2018-07-03T16:05:49.113Z,40.13
2018-07-03T16:08:40.450Z,33.07
2018-07-03T16:14:40.401Z,27.87
2018-07-03T16:17:12.832Z,29.23
2018-07-03T16:19:49.520Z,27.10
2018-07-03T16:22:21.738Z,33.63
2018-07-03T16:24:54.001Z,37.00
2018-07-03T16:27:44.391Z,42.60
2018-07-03T16:30:16.840Z,39.63
2018-07-03T16:32:49.169Z,31.02
2018-07-03T16:35:21.952Z,33.23
2018-07-03T16:37:58.166Z,29.85
2018-07-03T16:40:30.858Z,33.60
2018-07-03T16:43:03.353Z,35.60
2018-07-03T16:45:37.195Z,39.92
2018-07-03T16:48:09.909Z,38.70
2018-07-03T16:50:43.996Z,35.35
2018-07-03T16:53:17.177Z,26.35
2018-07-03T16:55:49.457Z,33.65
2018-07-03T16:58:26.825Z,35.60
2018-07-03T17:00:59.131Z,36.65
2018-07-03T17:03:31.543Z,33.33
2018-07-03T17:06:04.448Z,30.40
2018-07-03T17:08:37.332Z,36.38
2018-07-03T17:11:09.490Z,23.60
2018-07-03T17:13:41.928Z,39.00
2018-07-03T17:16:15.401Z,38.35
2018-07-03T17:18:52.034Z,36.28
2018-07-03T17:21:24.316Z,22.62
2018-07-03T17:23:56.516Z,24.23
2018-07-03T17:26:28.933Z,28.40
2018-07-03T17:29:01.244Z,45.35
2018-07-03T17:31:34.078Z,28.73
2018-07-03T17:34:06.875Z,36.25
2018-07-03T17:40:04.437Z,29.30
2018-07-03T17:42:51.326Z,27.37
2018-07-03T17:45:44.047Z,25.57
2018-07-03T17:48:17.341Z,26.87
2018-07-03T17:50:49.724Z,33.58
2018-07-03T17:53:22.620Z,38.90
2018-07-03T17:55:55.857Z,34.20
2018-07-03T17:58:29.937Z,33.40
2018-07-03T18:01:03.142Z,26.45
2018-07-03T18:03:36.013Z,31.00
2018-07-03T18:06:15.191Z,39.50
2018-07-03T18:08:51.620Z,26.57
2018-07-03T18:11:26.645Z,29.07
2018-07-03T18:14:00.039Z,32.63
2018-07-03T18:16:37.134Z,34.50
2018-07-03T18:19:14.111Z,38.73
2018-07-03T18:21:46.571Z,32.28
2018-07-03T18:24:19.173Z,39.30
2018-07-03T18:26:53.503Z,35.45
2018-07-03T18:29:26.397Z,23.98
2018-07-03T18:31:59.158Z,38.60
2018-07-03T18:37:53.460Z,30.92
2018-07-03T18:41:11.054Z,29.07
2018-07-03T18:43:49.170Z,29.35
2018-07-03T18:46:22.067Z,40.78
2018-07-03T18:48:57.464Z,39.25
2018-07-03T18:51:31.100Z,31.60
2018-07-03T18:54:03.680Z,33.42
2018-07-03T18:56:45.802Z,36.10
2018-07-03T18:59:18.758Z,45.17
2018-07-03T19:01:58.517Z,32.90
2018-07-03T19:04:37.011Z,29.72
2018-07-03T19:07:18.966Z,38.25
2018-07-03T19:09:52.093Z,26.95
2018-07-03T19:12:25.375Z,31.40
2018-07-03T19:14:58.975Z,26.10
2018-07-03T19:17:31.719Z,33.75
2018-07-03T19:20:04.414Z,27.25
2018-07-03T19:22:39.944Z,23.35
2018-07-03T19:25:13.028Z,25.88
2018-07-03T19:27:46.558Z,32.10
2018-07-03T19:30:21.054Z,33.88
2018-07-03T19:32:53.693Z,32.05
2018-07-03T19:35:27.376Z,22.60
2018-07-03T19:38:00.787Z,31.33
2018-07-03T19:40:35.765Z,36.95
2018-07-03T19:43:26.333Z,31.97
2018-07-03T19:49:21.501Z,24.40
2018-07-03T19:51:53.825Z,27.75
2018-07-03T19:54:26.812Z,30.30
2018-07-03T19:57:00.207Z,29.42
2018-07-03T19:59:33.548Z,28.98
2018-07-03T20:02:06.709Z,33.65
2018-07-03T20:08:11.160Z,20.68
2018-07-03T20:10:43.829Z,24.77
2018-07-03T20:13:18.852Z,35.23
2018-07-03T20:15:52.338Z,30.90
2018-07-03T20:18:25.355Z,28.57
2018-07-03T20:20:58.731Z,33.67
2018-07-03T20:23:31.836Z,29.40
2018-07-03T20:26:07.654Z,22.73
2018-07-03T20:28:40.125Z,29.00
2018-07-03T20:31:12.717Z,24.85
2018-07-03T20:33:45.305Z,26.70
2018-07-03T20:36:19.255Z,32.10
2018-07-03T20:38:51.791Z,40.05
2018-07-03T20:41:24.597Z,32.45
2018-07-03T20:43:57.225Z,39.08
2018-07-03T20:46:29.759Z,31.55
2018-07-03T20:52:09.371Z,20.02
2018-07-03T20:54:42.100Z,27.55
2018-07-03T20:57:14.939Z,35.88
2018-07-03T20:59:47.468Z,31.12
2018-07-03T21:02:19.983Z,30.50
2018-07-03T21:04:52.448Z,24.70
2018-07-03T21:07:25.367Z,27.45
2018-07-03T21:09:59.997Z,19.95
2018-07-03T21:12:33.110Z,22.85
2018-07-03T21:15:04.858Z,25.00
2018-07-03T21:17:38.187Z,27.60
2018-07-03T21:20:13.043Z,18.32
2018-07-03T21:22:45.620Z,24.67
2018-07-03T21:25:18.795Z,32.42
2018-07-03T21:27:51.259Z,27.30
2018-07-03T21:30:40.447Z,30.97
2018-07-03T21:33:13.477Z,32.00
2018-07-03T21:35:46.289Z,25.50
2018-07-03T21:38:20.049Z,43.25
2018-07-03T21:40:52.693Z,41.33
2018-07-03T21:43:28.535Z,20.45
2018-07-03T21:46:05.150Z,30.15
2018-07-03T21:48:37.674Z,29.75
2018-07-03T21:51:10.122Z,34.78
2018-07-03T21:53:42.588Z,28.42
2018-07-03T21:56:15.055Z,29.40
2018-07-03T21:58:47.447Z,31.23
2018-07-03T22:01:19.942Z,34.40
2018-07-03T22:07:13.804Z,37.03
2018-07-03T22:09:46.796Z,35.73
2018-07-03T22:12:19.565Z,34.05
2018-07-03T22:14:52.396Z,30.20
2018-07-03T22:17:25.305Z,38.25
2018-07-03T22:23:19.894Z,26.77
2018-07-03T22:25:56.128Z,23.07
2018-07-03T22:28:33.131Z,46.30
2018-07-03T22:31:05.774Z,41.77
2018-07-03T22:33:38.280Z,27.80
2018-07-03T22:36:11.384Z,32.30
2018-07-03T22:38:43.915Z,27.70
2018-07-03T22:41:16.637Z,17.70
2018-07-03T22:47:10.522Z,28.33
2018-07-03T22:49:43.231Z,31.50
2018-07-03T22:52:15.921Z,26.80
2018-07-03T22:58:09.412Z,38.10
2018-07-03T23:04:13.845Z,36.73
2018-07-03T23:06:46.960Z,40.13
2018-07-03T23:09:19.773Z,33.40
2018-07-03T23:11:52.611Z,33.80
2018-07-03T23:14:26.052Z,33.30
2018-07-03T23:16:58.925Z,32.20
2018-07-03T23:19:31.707Z,30.73
2018-07-03T23:22:05.647Z,24.80
2018-07-03T23:24:38.347Z,44.40
2018-07-03T23:30:32.034Z,35.83
2018-07-03T23:33:04.728Z,42.53
2018-07-03T23:35:37.470Z,33.17
2018-07-03T23:38:10.132Z,36.53
2018-07-03T23:40:42.836Z,30.17
2018-07-03T23:43:15.509Z,28.70
2018-07-03T23:45:56.603Z,29.20
2018-07-03T23:51:59.683Z,40.70
2018-07-03T23:54:41.439Z,30.90
2018-07-03T23:57:23.113Z,32.83
